Time;durP1;ratioP1;P1;durP2;ratioP2;P2;SDS_P1;SDS_P2;PMS_P1;PMS_P2;Temp;Humidity;BMP_temperature;BMP_pressure;BME280_temperature;BME280_humidity;BME280_pressure;Samples;Min_cycle;Max_cycle;Signal;HPM_P1;HPM_P2
2023/08/26 00:02:07;;;;;;;8.95;3.05;;;;;;;14.29;100.00;101056.91;5272369;28;20081;-72
2023/08/26 00:04:37;;;;;;;8.73;3.58;;;;;;;14.28;100.00;101057.94;5282859;28;20023;-72
2023/08/26 00:07:08;;;;;;;10.95;3.13;;;;;;;14.24;100.00;101043.97;5284112;28;20023;-72
2023/08/26 00:09:38;;;;;;;5.90;3.13;;;;;;;14.21;100.00;101053.28;5274874;28;20499;-72
2023/08/26 00:12:08;;;;;;;6.78;3.03;;;;;;;14.21;100.00;101053.28;5286307;28;20035;-72
2023/08/26 00:14:39;;;;;;;10.25;3.17;;;;;;;14.21;100.00;101056.00;5285969;28;20051;-72
2023/08/26 00:17:09;;;;;;;9.38;3.30;;;;;;;14.19;100.00;101052.63;5284738;28;20023;-73
2023/08/26 00:19:40;;;;;;;12.73;4.35;;;;;;;14.17;100.00;101049.28;5286219;28;20477;-72
2023/08/26 00:22:11;;;;;;;7.70;3.30;;;;;;;14.14;100.00;101043.41;5286206;28;20027;-72
2023/08/26 00:24:42;;;;;;;7.47;3.20;;;;;;;14.11;100.00;101049.19;5285872;28;20062;-73
2023/08/26 00:27:13;;;;;;;8.25;2.78;;;;;;;14.11;100.00;101054.59;5284278;28;20032;-72
2023/08/26 00:29:43;;;;;;;12.52;3.38;;;;;;;14.10;100.00;101052.88;5270181;28;20028;-72
2023/08/26 00:32:14;;;;;;;12.57;3.15;;;;;;;14.09;100.00;101046.66;5264799;28;20103;-72
2023/08/26 00:34:45;;;;;;;9.55;2.88;;;;;;;14.08;100.00;101049.56;5267859;28;20042;-72
2023/08/26 00:37:15;;;;;;;9.02;3.15;;;;;;;14.05;100.00;101045.34;5273717;28;20024;-73
2023/08/26 00:39:46;;;;;;;10.77;3.22;;;;;;;14.03;100.00;101047.41;5282472;28;20608;-72
2023/08/26 00:42:16;;;;;;;16.48;3.40;;;;;;;14.02;100.00;101044.91;5285712;28;20047;-73
2023/08/26 00:44:47;;;;;;;11.25;3.38;;;;;;;14.04;100.00;101043.69;5279561;28;20114;-72
2023/08/26 00:47:17;;;;;;;8.02;3.38;;;;;;;13.98;100.00;101041.72;5262999;28;20524;-72
2023/08/26 00:49:48;;;;;;;14.38;3.22;;;;;;;13.92;100.00;101043.31;5285458;28;20449;-72
2023/08/26 00:52:18;;;;;;;11.45;3.08;;;;;;;13.89;100.00;101040.94;5284002;28;20031;-72
2023/08/26 00:54:49;;;;;;;7.60;3.47;;;;;;;13.85;100.00;101034.25;5273814;28;20012;-72
2023/08/26 00:57:19;;;;;;;8.77;2.90;;;;;;;13.81;100.00;101038.34;5283814;28;20121;-72
2023/08/26 00:59:50;;;;;;;9.68;3.60;;;;;;;13.78;100.00;101033.31;5285312;28;20441;-71
2023/08/26 01:02:20;;;;;;;11.15;2.90;;;;;;;13.74;100.00;101038.22;5272289;28;20468;-73
2023/08/26 01:04:51;;;;;;;13.50;3.20;;;;;;;13.72;100.00;101037.59;5284915;28;20487;-72
2023/08/26 01:07:22;;;;;;;6.88;2.95;;;;;;;13.69;100.00;101037.94;5283620;28;20031;-73
2023/08/26 01:09:53;;;;;;;6.45;2.90;;;;;;;13.65;100.00;101044.69;5283540;28;20023;-72
2023/08/26 01:12:31;;;;;;;7.85;3.22;;;;;;;13.62;100.00;101042.38;5285342;28;20035;-72
2023/08/26 01:15:07;;;;;;;8.63;3.13;;;;;;;13.59;100.00;101045.44;5284740;28;20050;-72
2023/08/26 01:17:40;;;;;;;9.52;3.25;;;;;;;13.55;100.00;101041.41;5283470;28;20019;-72
2023/08/26 01:20:12;;;;;;;10.45;3.50;;;;;;;13.55;100.00;101035.19;5268963;28;20520;-72
2023/08/26 01:22:45;;;;;;;12.18;3.33;;;;;;;13.52;100.00;101030.19;5274739;28;20027;-72
2023/08/26 01:25:17;;;;;;;11.30;3.33;;;;;;;13.48;100.00;101038.63;5284238;28;20036;-72
2023/08/26 01:27:47;;;;;;;8.43;3.47;;;;;;;13.49;100.00;101042.16;5283620;28;20042;-72
2023/08/26 01:30:21;;;;;;;9.02;2.70;;;;;;;13.44;100.00;101031.91;5285231;28;20020;-72
2023/08/26 01:33:03;;;;;;;5.20;3.17;;;;;;;13.41;100.00;101036.84;5285500;28;20032;-72
2023/08/26 01:35:38;;;;;;;8.43;3.03;;;;;;;13.39;100.00;101036.16;5284537;28;20050;-72
2023/08/26 01:38:09;;;;;;;;;;;;;;;13.35;100.00;101037.53;5284506;28;20376;-72
2023/08/26 01:40:43;;;;;;;8.05;2.85;;;;;;;13.33;100.00;101034.19;5285380;28;19908;-72
2023/08/26 01:43:14;;;;;;;12.07;3.00;;;;;;;13.30;100.00;101029.16;5260973;28;20027;-72
2023/08/26 01:45:46;;;;;;;10.05;3.20;;;;;;;13.27;100.00;101026.84;5276230;28;20023;-72
2023/08/26 01:48:17;;;;;;;9.70;3.70;;;;;;;13.26;100.00;101030.56;5284267;28;20166;-72
2023/08/26 01:50:47;;;;;;;11.63;4.18;;;;;;;13.24;100.00;101025.31;5271422;28;20020;-72
2023/08/26 01:53:18;;;;;;;7.03;3.17;;;;;;;13.24;100.00;101029.88;5276289;28;20504;-72
2023/08/26 01:55:49;;;;;;;7.53;3.10;;;;;;;13.21;100.00;101037.31;5279052;28;20027;-72
2023/08/26 01:58:20;;;;;;;21.77;3.60;;;;;;;13.18;100.00;101034.94;5273990;28;20432;-73
2023/08/26 02:00:50;;;;;;;7.72;3.15;;;;;;;13.14;100.00;101033.59;5281100;28;20088;-72
2023/08/26 02:03:25;;;;;;;9.65;3.47;;;;;;;13.12;100.00;101029.44;5272299;28;20395;-72
2023/08/26 02:05:55;;;;;;;12.18;3.70;;;;;;;13.10;100.00;101035.00;5278756;28;20236;-72
2023/08/26 02:08:26;;;;;;;9.20;3.33;;;;;;;13.09;100.00;101027.09;5284344;28;20024;-72
2023/08/26 02:10:57;;;;;;;12.13;4.07;;;;;;;13.09;100.00;101030.59;5282910;28;20034;-72
2023/08/26 02:13:28;;;;;;;11.00;3.22;;;;;;;13.08;100.00;101030.81;5284165;28;20072;-72
2023/08/26 02:15:58;;;;;;;7.80;3.72;;;;;;;13.04;100.00;101033.00;5283749;28;20034;-72
2023/08/26 02:18:34;;;;;;;7.95;3.67;;;;;;;13.01;100.00;101029.84;5284514;28;20023;-72
2023/08/26 02:21:05;;;;;;;10.38;3.75;;;;;;;12.99;100.00;101030.00;5284922;28;20054;-72
2023/08/26 02:23:35;;;;;;;7.00;3.35;;;;;;;12.97;100.00;101021.28;5284348;28;20016;-72
2023/08/26 02:26:06;;;;;;;14.35;3.80;;;;;;;12.95;100.00;101018.78;5270824;28;20085;-72
2023/08/26 02:28:42;;;;;;;8.73;3.15;;;;;;;12.97;100.00;101013.19;5283755;28;20023;-72
2023/08/26 02:31:13;;;;;;;8.93;3.30;;;;;;;12.91;100.00;101009.38;5288727;28;20469;-73
2023/08/26 02:33:43;;;;;;;12.43;2.90;;;;;;;12.89;100.00;101006.00;5288474;28;20028;-72
2023/08/26 02:36:14;;;;;;;5.68;2.92;;;;;;;12.88;100.00;101001.63;5287110;28;20020;-72
2023/08/26 02:38:44;;;;;;;5.45;3.20;;;;;;;12.88;100.00;101011.56;5288636;28;20023;-72
2023/08/26 02:41:15;;;;;;;8.05;3.53;;;;;;;12.84;100.00;101010.22;5288472;28;21124;-74
2023/08/26 02:43:45;;;;;;;8.00;3.60;;;;;;;12.82;100.00;101010.41;5288857;28;20483;-72
2023/08/26 02:46:16;;;;;;;11.52;3.83;;;;;;;12.83;100.00;101008.56;5287379;28;20027;-72
2023/08/26 02:48:46;;;;;;;11.35;3.50;;;;;;;12.84;100.00;101008.38;5288087;28;20055;-72
2023/08/26 02:51:17;;;;;;;6.03;3.50;;;;;;;12.82;100.00;100996.97;5289025;28;20107;-72
2023/08/26 02:53:47;;;;;;;9.57;3.25;;;;;;;12.85;100.00;101007.38;5288361;28;20076;-72
2023/08/26 02:56:18;;;;;;;8.70;3.45;;;;;;;12.87;100.00;101009.88;5280850;28;20035;-72
2023/08/26 02:58:49;;;;;;;17.13;3.60;;;;;;;12.91;100.00;101012.06;5280330;28;20092;-72
2023/08/26 03:01:19;;;;;;;7.55;3.42;;;;;;;12.95;100.00;101009.81;5275000;28;20068;-73
2023/08/26 03:03:50;;;;;;;10.48;3.63;;;;;;;12.96;100.00;101011.53;5287660;28;20047;-72
2023/08/26 03:06:20;;;;;;;7.68;3.15;;;;;;;13.01;100.00;101009.13;5286994;28;20023;-72
2023/08/26 03:08:51;;;;;;;11.38;3.03;;;;;;;13.00;100.00;101010.13;5285951;28;20042;-72
2023/08/26 03:11:22;;;;;;;9.02;3.72;;;;;;;13.01;100.00;101009.13;5277754;28;20023;-72
2023/08/26 03:13:52;;;;;;;9.15;4.07;;;;;;;13.00;100.00;101006.59;5273828;28;20031;-72
2023/08/26 03:16:23;;;;;;;7.05;3.35;;;;;;;12.93;100.00;101003.78;5274237;28;20024;-72
2023/08/26 03:18:53;;;;;;;7.88;3.20;;;;;;;12.86;100.00;101006.38;5280218;28;20047;-72
2023/08/26 03:21:24;;;;;;;14.25;3.72;;;;;;;12.86;100.00;101010.91;5280254;28;20019;-72
2023/08/26 03:23:54;;;;;;;7.95;3.08;;;;;;;12.80;100.00;101003.53;5287468;28;20081;-72
2023/08/26 03:26:25;;;;;;;9.82;3.53;;;;;;;12.76;100.00;100994.97;5285714;28;20114;-72
2023/08/26 03:28:55;;;;;;;14.48;3.67;;;;;;;12.74;100.00;101004.22;5287641;28;20335;-72
2023/08/26 03:31:26;;;;;;;14.07;3.65;;;;;;;12.70;100.00;100999.22;5284809;28;20055;-72
2023/08/26 03:33:56;;;;;;;9.88;3.58;;;;;;;12.69;100.00;101010.13;5276720;28;20023;-72
2023/08/26 03:36:27;;;;;;;10.10;3.40;;;;;;;12.66;100.00;100997.88;5272724;28;20019;-73
2023/08/26 03:38:57;;;;;;;10.65;3.67;;;;;;;12.66;100.00;100997.88;5287417;28;20030;-72
2023/08/26 03:41:28;;;;;;;11.07;3.58;;;;;;;12.67;100.00;101001.41;5286761;28;20165;-72
2023/08/26 03:43:59;;;;;;;13.52;3.72;;;;;;;12.63;100.00;101009.00;5287345;28;20019;-72
2023/08/26 03:46:30;;;;;;;10.80;3.33;;;;;;;12.61;100.00;101008.34;5285764;28;20034;-71
2023/08/26 03:49:01;;;;;;;11.48;3.47;;;;;;;12.58;100.00;101014.06;5286966;28;20027;-72
2023/08/26 03:51:31;;;;;;;7.90;3.75;;;;;;;12.55;100.00;101013.56;5286807;28;20042;-72
2023/08/26 03:54:02;;;;;;;11.55;3.45;;;;;;;12.53;100.00;101016.44;5287081;28;20024;-72
2023/08/26 03:56:32;;;;;;;8.00;3.30;;;;;;;12.49;100.00;101008.88;5285960;28;20028;-71
2023/08/26 03:59:02;;;;;;;9.98;3.58;;;;;;;12.46;100.00;101020.84;5287061;28;20024;-72
2023/08/26 04:01:33;;;;;;;7.30;3.20;;;;;;;12.40;100.00;101014.31;5286398;28;20023;-72
2023/08/26 04:04:04;;;;;;;9.07;4.22;;;;;;;12.42;100.00;101014.16;5286655;28;20027;-73
2023/08/26 04:06:34;;;;;;;11.88;3.30;;;;;;;12.41;100.00;101015.16;5281178;28;20024;-72
2023/08/26 04:09:05;;;;;;;7.47;3.88;;;;;;;12.40;100.00;101016.19;5266853;28;20031;-72
2023/08/26 04:11:35;;;;;;;12.02;3.60;;;;;;;12.38;100.00;101016.34;5273919;28;20028;-72
2023/08/26 04:14:06;;;;;;;7.95;3.33;;;;;;;12.36;100.00;101013.00;5265371;28;20016;-72
2023/08/26 04:16:36;;;;;;;9.52;3.45;;;;;;;12.34;100.00;101016.84;5278200;28;20020;-72
2023/08/26 04:19:07;;;;;;;8.85;3.30;;;;;;;12.31;100.00;101023.44;5286285;28;20377;-72
2023/08/26 04:21:37;;;;;;;9.57;3.80;;;;;;;12.27;100.00;101023.94;5286432;28;20041;-72
2023/08/26 04:24:08;;;;;;;12.20;3.67;;;;;;;12.23;100.00;101034.22;5286920;28;20465;-72
2023/08/26 04:26:38;;;;;;;6.88;3.55;;;;;;;12.21;100.00;101030.88;5266434;28;20035;-72
2023/08/26 04:29:09;;;;;;;10.52;3.38;;;;;;;12.22;100.00;101031.69;5276298;28;20045;-72
2023/08/26 04:31:39;;;;;;;7.72;3.10;;;;;;;12.19;100.00;101039.09;5264991;28;20096;-72
2023/08/26 04:34:11;;;;;;;6.88;3.08;;;;;;;12.15;100.00;101039.63;5276893;28;20386;-72
2023/08/26 04:36:42;;;;;;;7.53;3.50;;;;;;;12.10;100.00;101042.81;5278620;28;20032;-74
2023/08/26 04:39:12;;;;;;;8.32;3.80;;;;;;;12.06;100.00;101041.50;5263979;28;20114;-72
2023/08/26 04:41:43;;;;;;;7.93;3.67;;;;;;;12.04;100.00;101035.41;5285693;28;20035;-72
2023/08/26 04:44:17;;;;;;;5.78;3.10;;;;;;;12.03;100.00;101041.81;5286243;28;20023;-72
2023/08/26 04:46:47;;;;;;;10.95;3.67;;;;;;;12.01;100.00;101051.91;5284791;28;20487;-72
2023/08/26 04:49:18;;;;;;;23.60;3.58;;;;;;;11.97;100.00;101050.56;5283633;28;20028;-72
2023/08/26 04:51:51;;;;;;;50.88;3.97;;;;;;;11.91;100.00;101054.78;5274565;28;20031;-72
2023/08/26 04:54:22;;;;;;;89.32;4.40;;;;;;;11.84;100.00;101053.75;5285291;28;20084;-72
2023/08/26 04:56:52;;;;;;;7.53;2.33;;;;;;;11.82;100.00;101053.09;5284542;28;20035;-72
2023/08/26 04:59:23;;;;;;;5.10;2.97;;;;;;;11.83;100.00;101054.78;5272283;28;20447;-71
2023/08/26 05:01:53;;;;;;;17.17;5.22;;;;;;;11.88;100.00;101063.19;5272573;28;20031;-72
2023/08/26 05:04:25;;;;;;;4.90;2.95;;;;;;;11.94;100.00;101061.66;5285384;28;20215;-71
2023/08/26 05:06:55;;;;;;;12.57;4.15;;;;;;;11.97;100.00;101063.19;5284477;28;20476;-71
2023/08/26 05:09:28;;;;;;;10.93;4.35;;;;;;;12.06;100.00;101072.91;5283837;28;20064;-72
2023/08/26 05:11:58;;;;;;;16.13;4.40;;;;;;;12.13;100.00;101068.53;5283723;28;20211;-72
2023/08/26 05:14:29;;;;;;;11.80;3.65;;;;;;;12.23;100.00;101065.66;5273875;28;20015;-72
2023/08/26 05:16:59;;;;;;;11.32;4.47;;;;;;;12.30;100.00;101069.31;5280866;28;20107;-72
2023/08/26 05:19:30;;;;;;;10.45;3.60;;;;;;;12.35;100.00;101067.81;5261735;28;20424;-72
2023/08/26 05:22:02;;;;;;;8.63;3.42;;;;;;;12.39;100.00;101066.44;5271581;28;20034;-72
2023/08/26 05:24:34;;;;;;;11.38;4.03;;;;;;;12.43;100.00;101058.88;5271386;28;20625;-71
2023/08/26 05:27:04;;;;;;;12.38;4.22;;;;;;;12.46;100.00;101061.22;5280980;28;20743;-71
2023/08/26 05:29:35;;;;;;;14.30;3.60;;;;;;;12.52;100.00;101057.84;5282578;28;20035;-71
2023/08/26 05:32:05;;;;;;;10.75;3.90;;;;;;;12.55;100.00;101059.31;5269903;28;20465;-72
2023/08/26 05:34:36;;;;;;;8.90;3.20;;;;;;;12.61;100.00;101061.34;5287723;27;20023;-71
2023/08/26 05:37:06;;;;;;;8.85;3.58;;;;;;;12.69;100.00;101063.97;5297108;27;20016;-71
2023/08/26 05:39:37;;;;;;;13.30;4.22;;;;;;;12.75;100.00;101063.31;5285252;27;20035;-72
2023/08/26 05:42:07;;;;;;;15.60;4.30;;;;;;;12.83;100.00;101057.03;5284924;28;20432;-71
2023/08/26 05:44:39;;;;;;;10.98;4.07;;;;;;;12.96;100.00;101054.59;5297902;28;20477;-72
2023/08/26 05:47:09;;;;;;;14.57;4.43;;;;;;;13.07;100.00;101058.75;5292980;28;20344;-71
2023/08/26 05:49:40;;;;;;;13.38;4.10;;;;;;;13.15;100.00;101056.00;5291852;28;20401;-71
2023/08/26 05:52:11;;;;;;;18.20;4.63;;;;;;;13.34;100.00;101055.56;5282154;28;20389;-72
2023/08/26 05:54:42;;;;;;;11.02;3.80;;;;;;;13.71;100.00;101053.94;5282444;28;20027;-72
2023/08/26 05:57:13;;;;;;;12.73;4.22;;;;;;;14.36;100.00;101058.69;5266434;28;20043;-72
2023/08/26 05:59:44;;;;;;;12.50;4.00;;;;;;;15.02;100.00;101056.88;5261328;28;20028;-72
2023/08/26 06:02:14;;;;;;;8.90;2.90;;;;;;;15.45;100.00;101062.31;5276940;28;20031;-73
2023/08/26 06:04:44;;;;;;;13.32;3.22;;;;;;;15.91;100.00;101059.22;5283631;28;20400;-72
2023/08/26 06:07:15;;;;;;;12.32;3.20;;;;;;;16.41;100.00;101043.72;5267850;28;20028;-72
2023/08/26 06:09:46;;;;;;;8.85;2.72;;;;;;;16.97;100.00;101045.50;5284444;28;20478;-72
2023/08/26 06:12:17;;;;;;;10.15;2.60;;;;;;;17.25;100.00;101038.03;5268520;28;20027;-72
2023/08/26 06:14:47;;;;;;;12.38;2.78;;;;;;;17.59;100.00;101038.94;5277738;28;20019;-72
2023/08/26 06:17:18;;;;;;;6.30;1.90;;;;;;;17.92;100.00;101043.53;5286596;28;20050;-73
2023/08/26 06:19:48;;;;;;;10.27;2.58;;;;;;;18.17;100.00;101044.56;5288421;28;20023;-72
2023/08/26 06:22:19;;;;;;;8.40;2.17;;;;;;;18.37;100.00;101056.25;5280919;28;20049;-72
2023/08/26 06:24:49;;;;;;;8.80;2.25;;;;;;;18.30;100.00;101058.13;5287982;28;20631;-72
2023/08/26 06:27:20;;;;;;;5.72;2.22;;;;;;;18.36;100.00;101048.28;5286610;28;20020;-73
2023/08/26 06:29:53;;;;;;;6.40;2.00;;;;;;;18.48;100.00;101048.50;5287500;28;20027;-72
2023/08/26 06:32:24;;;;;;;8.25;2.38;;;;;;;18.84;100.00;101050.69;5287810;28;20027;-72
2023/08/26 06:34:54;;;;;;;5.38;2.00;;;;;;;19.36;100.00;101054.16;5274616;28;20027;-72
2023/08/26 06:37:25;;;;;;;9.60;2.03;;;;;;;19.05;100.00;101058.53;5286590;28;20032;-73
2023/08/26 06:39:55;;;;;;;5.85;2.00;;;;;;;19.33;100.00;101055.44;5287566;28;20020;-72
2023/08/26 06:42:26;;;;;;;5.38;1.70;;;;;;;19.42;100.00;101051.38;5288089;28;20030;-72
2023/08/26 06:44:58;;;;;;;6.15;1.90;;;;;;;19.59;100.00;101053.59;5288029;28;20469;-72
2023/08/26 06:47:28;;;;;;;5.10;1.55;;;;;;;19.49;100.00;101051.38;5286287;28;20024;-72
2023/08/26 06:49:59;;;;;;;13.10;2.42;;;;;;;19.59;100.00;101054.47;5288044;28;20588;-72
2023/08/26 06:52:30;;;;;;;5.90;1.70;;;;;;;19.49;100.00;101047.81;5287473;28;20141;-74
2023/08/26 06:55:00;;;;;;;5.63;1.50;;;;;;;19.28;100.00;101046.28;5288103;28;20062;-72
2023/08/26 06:57:31;;;;;;;5.38;1.60;;;;;;;19.72;100.00;101042.63;5282786;28;20380;-73
2023/08/26 07:00:03;;;;;;;7.82;1.65;;;;;;;19.65;100.00;101047.28;5277357;28;20447;-73
2023/08/26 07:02:34;;;;;;;9.50;1.70;;;;;;;20.16;100.00;101044.31;5273999;28;20051;-73
2023/08/26 07:05:05;;;;;;;10.57;2.35;;;;;;;20.30;100.00;101050.47;5287017;28;20037;-72
2023/08/26 07:07:36;;;;;;;5.78;1.60;;;;;;;20.31;100.00;101043.97;5281822;28;20085;-72
2023/08/26 07:10:07;;;;;;;6.63;1.80;;;;;;;20.60;100.00;101044.31;5285658;28;20024;-73
2023/08/26 07:12:37;;;;;;;10.15;1.90;;;;;;;20.68;100.00;101039.41;5287820;28;20027;-72
2023/08/26 07:15:08;;;;;;;4.57;1.80;;;;;;;20.42;100.00;101036.94;5272628;28;20454;-73
2023/08/26 07:17:39;;;;;;;5.65;1.63;;;;;;;20.69;100.00;101043.78;5272153;28;20015;-73
2023/08/26 07:20:10;;;;;;;3.55;1.42;;;;;;;20.88;100.00;101049.19;5273778;28;20120;-72
2023/08/26 07:22:40;;;;;;;7.47;2.00;;;;;;;21.11;100.00;101049.31;5287176;28;20097;-73
2023/08/26 07:25:11;;;;;;;6.68;2.03;;;;;;;21.19;100.00;101046.28;5286954;28;20769;-72
2023/08/26 07:27:41;;;;;;;8.23;1.92;;;;;;;20.64;100.00;101046.34;5285824;28;20050;-72
2023/08/26 07:30:13;;;;;;;6.45;2.28;;;;;;;20.58;100.00;101046.41;5286964;28;20023;-72
2023/08/26 07:32:44;;;;;;;8.57;2.35;;;;;;;20.65;100.00;101045.28;5287657;28;20123;-71
2023/08/26 07:35:14;;;;;;;5.13;1.70;;;;;;;20.74;100.00;101053.19;5268570;28;20411;-73
2023/08/26 07:37:45;;;;;;;3.97;1.52;;;;;;;21.26;100.00;101048.91;5286302;28;20032;-72
2023/08/26 07:40:16;;;;;;;6.65;1.95;;;;;;;21.16;100.00;101056.81;5286795;28;20033;-73
2023/08/26 07:42:46;;;;;;;3.42;1.30;;;;;;;21.28;100.00;101046.75;5286703;28;20027;-72
2023/08/26 07:45:17;;;;;;;5.65;1.40;;;;;;;21.34;100.00;101045.06;5286911;28;20024;-72
2023/08/26 07:47:48;;;;;;;8.05;1.50;;;;;;;21.31;100.00;101038.16;5285330;28;20392;-72
2023/08/26 07:50:18;;;;;;;6.10;1.60;;;;;;;21.77;100.00;101042.03;5275908;28;20028;-73
2023/08/26 07:52:49;;;;;;;3.95;1.67;;;;;;;21.65;100.00;101043.94;5269433;28;20031;-73
2023/08/26 07:55:20;;;;;;;5.25;1.60;;;;;;;21.62;100.00;101044.41;5286672;28;20035;-73
2023/08/26 07:57:50;;;;;;;4.70;1.40;;;;;;;21.73;100.00;101040.84;5285082;28;20203;-72
2023/08/26 08:00:21;;;;;;;6.05;1.27;;;;;;;21.97;100.00;101038.97;5286699;28;20023;-73
2023/08/26 08:02:51;;;;;;;4.13;1.35;;;;;;;22.01;100.00;101039.34;5286839;28;20039;-73
2023/08/26 08:05:22;;;;;;;3.65;1.00;;;;;;;21.44;100.00;101032.50;5285445;28;20107;-73
2023/08/26 08:07:52;;;;;;;4.70;1.20;;;;;;;21.43;100.00;101033.53;5280402;28;20034;-73
2023/08/26 08:10:23;;;;;;;6.68;1.45;;;;;;;21.77;100.00;101031.13;5279276;28;20450;-72
2023/08/26 08:12:53;;;;;;;2.17;0.85;;;;;;;22.13;100.00;101042.91;5286469;28;20026;-72
2023/08/26 08:15:23;;;;;;;4.45;1.30;;;;;;;22.10;100.00;101046.13;5285903;28;20019;-73
2023/08/26 08:17:55;;;;;;;4.45;1.00;;;;;;;22.27;100.00;101043.50;5284378;28;20436;-73
2023/08/26 08:20:25;;;;;;;6.60;1.75;;;;;;;21.38;100.00;101043.50;5285991;28;20016;-73
2023/08/26 08:22:56;;;;;;;4.22;1.13;;;;;;;21.12;100.00;101041.97;5267775;28;20168;-73
2023/08/26 08:25:26;;;;;;;3.03;1.40;;;;;;;20.70;100.00;101039.16;5285502;28;20024;-73
2023/08/26 08:27:57;;;;;;;5.72;1.23;;;;;;;20.87;100.00;101044.81;5284487;28;20024;-73
2023/08/26 08:30:28;;;;;;;5.50;1.40;;;;;;;20.66;100.00;101044.22;5264851;28;20065;-73
2023/08/26 08:32:58;;;;;;;5.95;1.58;;;;;;;20.99;100.00;101037.53;5279634;28;20030;-73
2023/08/26 08:35:29;;;;;;;2.60;1.20;;;;;;;21.30;100.00;101049.28;5285956;28;20028;-73
2023/08/26 08:38:00;;;;;;;5.80;1.55;;;;;;;21.53;100.00;101041.16;5271676;28;20023;-73
2023/08/26 08:40:30;;;;;;;2.90;1.20;;;;;;;21.82;100.00;101035.88;5285719;28;20024;-73
2023/08/26 08:43:02;;;;;;;5.38;1.40;;;;;;;22.12;100.00;101054.94;5272562;28;20524;-73
2023/08/26 08:45:34;;;;;;;4.05;1.48;;;;;;;22.28;100.00;101048.72;5286700;28;20533;-71
2023/08/26 08:48:05;;;;;;;6.22;1.65;;;;;;;21.76;100.00;101056.78;5286531;28;20020;-71
2023/08/26 08:50:35;;;;;;;7.38;1.48;;;;;;;22.36;100.00;101053.84;5286687;28;20027;-71
2023/08/26 08:53:07;;;;;;;2.28;1.10;;;;;;;22.01;100.00;101056.56;5279324;28;20073;-71
2023/08/26 08:55:38;;;;;;;5.05;1.40;;;;;;;22.14;100.00;101047.31;5280205;28;20027;-71
2023/08/26 08:58:12;;;;;;;2.90;1.25;;;;;;;22.40;100.00;101054.22;5277244;28;20012;-71
2023/08/26 09:00:42;;;;;;;4.28;1.40;;;;;;;22.25;100.00;101046.50;5282162;28;20415;-70
2023/08/26 09:03:14;;;;;;;3.47;1.30;;;;;;;22.66;100.00;101052.84;5286104;28;20076;-71
2023/08/26 09:05:45;;;;;;;3.63;1.33;;;;;;;23.21;100.00;101044.97;5253861;28;20031;-70
2023/08/26 09:08:17;;;;;;;5.53;1.60;;;;;;;23.18;100.00;101055.56;5286144;28;20016;-72
2023/08/26 09:10:48;;;;;;;4.38;1.40;;;;;;;23.00;100.00;101037.44;5266318;28;20028;-71
2023/08/26 09:13:19;;;;;;;8.13;1.40;;;;;;;23.07;100.00;101060.00;5278350;28;20019;-71
2023/08/26 09:15:50;;;;;;;3.92;1.20;;;;;;;22.78;100.00;101059.09;5285965;28;20084;-71
2023/08/26 09:18:21;;;;;;;6.32;1.13;;;;;;;22.80;100.00;101054.25;5271592;28;20435;-71
2023/08/26 09:20:51;;;;;;;3.88;1.42;;;;;;;22.66;100.00;101063.78;5277596;28;20032;-71
2023/08/26 09:23:22;;;;;;;1.83;1.00;;;;;;;22.77;100.00;101051.16;5264887;28;20020;-72
2023/08/26 09:25:55;;;;;;;7.40;1.35;;;;;;;22.55;100.00;101051.81;5264533;28;20119;-71
2023/08/26 09:28:26;;;;;;;5.95;1.60;;;;;;;22.18;100.00;101043.88;5282103;28;20106;-71
2023/08/26 09:31:15;;;;;;;2.83;1.20;;;;;;;22.94;100.00;101058.41;5286033;28;20093;-71
2023/08/26 09:34:01;;;;;;;4.43;1.20;;;;;;;22.86;100.00;101053.28;5285859;28;20059;-71
2023/08/26 09:36:42;;;;;;;6.88;1.25;;;;;;;22.77;100.00;101051.97;5285635;28;20500;-72
2023/08/26 09:39:13;;;;;;;4.57;1.10;;;;;;;22.83;100.00;101051.00;5284526;28;20028;-73
2023/08/26 09:41:46;;;;;;;4.03;1.35;;;;;;;22.97;100.00;101044.22;5285277;28;20373;-73
2023/08/26 09:44:17;;;;;;;5.32;1.63;;;;;;;22.91;100.00;101044.38;5284802;28;20422;-73
2023/08/26 09:46:48;;;;;;;5.75;1.50;;;;;;;23.12;100.00;101040.13;5283203;28;20024;-73
2023/08/26 09:49:18;;;;;;;4.43;1.60;;;;;;;23.10;100.00;101036.81;5284970;28;20031;-73
2023/08/26 09:51:51;;;;;;;2.78;1.30;;;;;;;23.06;100.00;101041.09;5266267;28;20039;-73
2023/08/26 09:54:21;;;;;;;3.58;1.40;;;;;;;23.37;100.00;101037.03;5267205;28;20077;-73
2023/08/26 09:56:52;;;;;;;2.95;1.05;;;;;;;23.47;100.00;101039.94;5272598;28;20028;-74
2023/08/26 09:59:22;;;;;;;2.55;1.23;;;;;;;23.19;100.00;101040.78;5269149;28;20068;-72
2023/08/26 10:01:53;;;;;;;7.53;1.63;;;;;;;22.95;100.00;101040.91;5271398;28;20024;-73
2023/08/26 10:04:29;;;;;;;2.83;1.25;;;;;;;22.85;100.00;101048.06;5283505;28;20026;-73
2023/08/26 10:07:01;;;;;;;2.88;1.20;;;;;;;22.51;100.00;101061.56;5283417;28;20020;-72
2023/08/26 10:09:39;;;;;;;6.30;1.27;;;;;;;22.38;100.00;101054.44;5272813;28;20020;-73
2023/08/26 10:12:15;;;;;;;3.33;1.20;;;;;;;22.18;100.00;101062.16;5284469;28;20024;-73
2023/08/26 10:14:49;;;;;;;3.15;1.13;;;;;;;21.85;100.00;101051.81;5272333;28;20039;-73
2023/08/26 10:17:21;;;;;;;4.72;1.60;;;;;;;21.81;100.00;101051.44;5281746;28;20104;-73
2023/08/26 10:19:52;;;;;;;2.42;1.65;;;;;;;21.98;100.00;101054.28;5284778;28;20023;-73
2023/08/26 10:22:24;;;;;;;2.90;1.33;;;;;;;22.08;100.00;101053.69;5284472;28;20038;-72
2023/08/26 10:24:55;;;;;;;4.82;1.55;;;;;;;22.34;100.00;101053.28;5283463;28;20043;-73
2023/08/26 10:27:25;;;;;;;2.08;1.10;;;;;;;22.16;100.00;101047.91;5274099;28;20034;-72
2023/08/26 10:29:56;;;;;;;7.38;1.42;;;;;;;22.12;100.00;101058.50;5277078;28;20461;-72
2023/08/26 10:32:27;;;;;;;4.95;1.13;;;;;;;22.40;100.00;101062.41;5273251;28;20027;-73
2023/08/26 10:34:59;;;;;;;3.30;1.20;;;;;;;22.10;100.00;101057.88;5283968;28;20019;-73
2023/08/26 10:37:31;;;;;;;4.22;1.40;;;;;;;22.00;100.00;101049.44;5271020;28;20031;-72
2023/08/26 10:40:30;;;;;;;4.43;1.10;;;;;;;22.11;100.00;101050.53;5264519;28;20031;-73
2023/08/26 10:43:16;;;;;;;3.63;1.05;;;;;;;21.66;100.00;101049.16;5284223;28;20409;-73
2023/08/26 10:45:48;;;;;;;3.13;1.02;;;;;;;21.68;100.00;101046.19;5269108;28;20039;-73
2023/08/26 10:48:19;;;;;;;5.18;1.20;;;;;;;21.70;100.00;101044.91;5283125;28;20024;-73
2023/08/26 10:51:07;;;;;;;5.30;1.15;;;;;;;22.11;100.00;101045.06;5283318;28;20118;-73
2023/08/26 10:54:13;;;;;;;3.08;1.25;;;;;;;22.50;100.00;101035.28;5277216;28;20038;-74
2023/08/26 10:56:58;;;;;;;5.78;1.48;;;;;;;22.91;100.00;101031.53;5274807;28;20023;-73
2023/08/26 10:59:40;;;;;;;3.10;1.25;;;;;;;23.11;100.00;101039.28;5287925;28;20118;-73
2023/08/26 11:02:11;;;;;;;3.05;1.10;;;;;;;22.96;100.00;101031.63;5271680;28;20035;-73
2023/08/26 11:04:44;;;;;;;4.05;1.23;;;;;;;22.72;100.00;101030.81;5283290;27;20015;-72
2023/08/26 11:07:16;;;;;;;2.40;1.13;;;;;;;22.90;100.00;101026.31;5284019;27;20020;-73
2023/08/26 11:09:46;;;;;;;2.53;1.20;;;;;;;22.85;100.00;101026.16;5276188;27;20028;-73
2023/08/26 11:12:36;;;;;;;2.75;1.40;;;;;;;22.57;100.00;101037.88;5286919;28;20089;-73
2023/08/26 11:15:07;;;;;;;3.22;1.35;;;;;;;22.32;100.00;101030.78;5285827;28;20027;-72
2023/08/26 11:17:39;;;;;;;3.42;1.27;;;;;;;22.14;100.00;101023.56;5284619;28;20378;-73
2023/08/26 11:20:10;;;;;;;2.55;1.30;;;;;;;22.12;100.00;101028.44;5286597;28;20140;-73
2023/08/26 11:22:41;;;;;;;1.92;1.02;;;;;;;22.11;100.00;101023.22;5268723;28;20023;-73
2023/08/26 11:25:13;;;;;;;2.95;1.20;;;;;;;22.45;100.00;101030.56;5285698;28;20020;-74
2023/08/26 11:27:44;;;;;;;2.00;1.50;;;;;;;22.85;100.00;101021.53;5275708;27;20142;-73
2023/08/26 11:30:14;;;;;;;3.00;1.10;;;;;;;23.10;100.00;101026.69;5295811;27;20102;-72
2023/08/26 11:32:48;;;;;;;9.18;1.52;;;;;;;23.20;100.00;101032.34;5285508;28;20122;-72
2023/08/26 11:35:19;;;;;;;3.42;1.33;;;;;;;23.09;100.00;101022.28;5279766;28;20389;-73